createdAt,value
2022-09-30T00:05:02.740Z,24.1
2022-09-30T00:10:39.956Z,24.1
2022-09-30T00:16:16.851Z,24.1
2022-09-30T00:21:23.565Z,24.2
2022-09-30T00:26:29.868Z,24.1
2022-09-30T00:32:07.023Z,24.1
2022-09-30T00:37:44.278Z,24.1
2022-09-30T00:43:20.892Z,24.1
2022-09-30T00:49:03.070Z,24.1
2022-09-30T00:54:25.375Z,24.1
2022-09-30T01:00:01.296Z,24.1
2022-09-30T01:05:37.944Z,24.1
2022-09-30T01:11:19.973Z,24.1
2022-09-30T01:16:56.973Z,24.1
2022-09-30T01:22:19.100Z,24.1
2022-09-30T01:28:01.981Z,24.1
2022-09-30T01:33:23.203Z,24.1
2022-09-30T01:38:44.759Z,24.1
2022-09-30T01:44:07.330Z,24.1
2022-09-30T01:49:43.325Z,24.1
2022-09-30T01:55:19.964Z,24.1
2022-09-30T02:00:57.943Z,24.1
2022-09-30T02:06:34.242Z,24.1
2022-09-30T02:12:11.835Z,24.1
2022-09-30T02:17:49.412Z,24.1
2022-09-30T02:23:26.366Z,24.1
2022-09-30T02:29:03.203Z,24.1
2022-09-30T02:34:41.057Z,24.1
2022-09-30T02:39:47.424Z,24
2022-09-30T02:45:08.855Z,24.1
2022-09-30T02:50:15.867Z,24
2022-09-30T02:55:52.128Z,24
2022-09-30T03:01:36.055Z,24
2022-09-30T03:07:13.810Z,24
2022-09-30T03:12:35.829Z,24
2022-09-30T03:18:15.897Z,24
2022-09-30T03:23:23.069Z,24
2022-09-30T03:28:44.400Z,23.9
2022-09-30T03:34:23.311Z,23.9
2022-09-30T03:40:00.457Z,23.9
2022-09-30T03:45:36.652Z,23.9
2022-09-30T03:51:13.483Z,23.9
2022-09-30T03:56:50.757Z,23.9
2022-09-30T04:02:27.874Z,23.8
2022-09-30T04:08:04.713Z,23.8
2022-09-30T04:13:43.127Z,23.8
2022-09-30T04:19:23.453Z,23.8
2022-09-30T04:24:45.154Z,23.8
2022-09-30T04:30:07.548Z,23.8
2022-09-30T04:35:48.862Z,23.7
2022-09-30T04:41:26.744Z,23.7
2022-09-30T04:46:49.656Z,23.7
2022-09-30T04:52:31.504Z,23.7
2022-09-30T04:57:53.774Z,23.6
2022-09-30T05:03:17.150Z,23.5
2022-09-30T05:08:59.690Z,23.5
2022-09-30T05:14:36.620Z,23.5
2022-09-30T05:20:16.617Z,23.4
2022-09-30T05:25:56.538Z,23.4
2022-09-30T05:31:34.336Z,23.4
2022-09-30T05:37:12.477Z,23.4
2022-09-30T05:42:50.084Z,23.4
2022-09-30T05:48:27.675Z,23.3
2022-09-30T05:54:10.838Z,23.3
2022-09-30T05:59:55.496Z,23.3
2022-09-30T06:05:41.057Z,23.3
2022-09-30T06:11:25.576Z,23.3
2022-09-30T06:17:03.768Z,23.3
2022-09-30T06:22:41.554Z,23.3
2022-09-30T06:28:20.813Z,23.3
2022-09-30T06:34:00.318Z,23.3
2022-09-30T06:39:37.962Z,23.3
2022-09-30T06:45:49.249Z,23.3
2022-09-30T06:52:47.500Z,23.2
2022-09-30T06:58:25.510Z,23.2
2022-09-30T07:04:06.842Z,23.2
2022-09-30T07:09:44.205Z,23.2
2022-09-30T07:15:21.071Z,23.2
2022-09-30T07:20:59.810Z,23.2
2022-09-30T07:26:37.548Z,23.2
2022-09-30T07:33:12.762Z,23.2
2022-09-30T07:38:52.353Z,23.1
2022-09-30T07:44:30.731Z,23.1
2022-09-30T07:50:11.866Z,23.1
2022-09-30T07:55:56.276Z,23.1
2022-09-30T08:02:26.443Z,49.1
2022-09-30T08:08:08.629Z,41
2022-09-30T08:13:49.248Z,45.5
2022-09-30T08:19:27.030Z,46.9
2022-09-30T08:25:11.314Z,48.1
2022-09-30T08:31:19.361Z,49.2
2022-09-30T08:36:59.615Z,50.1
2022-09-30T08:42:57.595Z,51.2
2022-09-30T08:48:43.041Z,52.3
2022-09-30T08:54:39.296Z,53.3
2022-09-30T09:00:21.800Z,54.2
2022-09-30T09:06:04.815Z,55.1
2022-09-30T09:11:43.482Z,55.8
2022-09-30T09:17:21.157Z,56.5
2022-09-30T09:23:13.701Z,57.3
2022-09-30T09:34:15.535Z,58.3
2022-09-30T09:39:41.042Z,58.7
2022-09-30T09:45:27.944Z,59.1
2022-09-30T09:50:50.947Z,59.4
2022-09-30T09:56:32.229Z,59.9
2022-09-30T10:02:16.350Z,60.3
2022-09-30T10:07:53.473Z,60.7
2022-09-30T10:13:15.997Z,61.1
2022-09-30T10:18:54.082Z,61
2022-09-30T10:24:16.662Z,60.9
2022-09-30T10:29:58.048Z,61
2022-09-30T10:35:41.423Z,61
2022-09-30T10:41:24.572Z,61.1
2022-09-30T10:47:14.187Z,61.3
2022-09-30T10:52:42.588Z,61.4
2022-09-30T10:58:11.348Z,61.4
2022-09-30T11:03:41.651Z,61.6
2022-09-30T11:09:03.785Z,61.9
2022-09-30T11:14:26.137Z,62.6
2022-09-30T11:20:04.423Z,62.4
2022-09-30T11:25:44.343Z,62.4
2022-09-30T11:31:09.127Z,63.6
2022-09-30T11:36:32.024Z,62.6
2022-09-30T11:42:09.529Z,63.6
2022-09-30T11:47:46.930Z,63.2
2022-09-30T11:53:09.256Z,55.9
2022-09-30T11:59:12.423Z,50
2022-09-30T12:04:34.756Z,45.8
2022-09-30T12:10:12.976Z,43.3
2022-09-30T12:15:25.673Z,41.5
2022-09-30T12:21:10.308Z,40.1
2022-09-30T12:26:32.687Z,38.9
2022-09-30T12:32:12.967Z,37.8
2022-09-30T12:37:50.631Z,36.8
2022-09-30T12:43:28.119Z,55.6
2022-09-30T12:49:07.091Z,58.6
2022-09-30T12:54:44.818Z,55.2
2022-09-30T13:00:22.142Z,50.8
2022-09-30T13:06:00.637Z,60.7
2022-09-30T13:11:40.935Z,56.8
2022-09-30T13:17:04.437Z,52.9
2022-09-30T13:22:42.533Z,48.3
2022-09-30T13:28:09.857Z,44.4
2022-09-30T13:33:48.330Z,58.4
2022-09-30T13:39:26.102Z,53.8
2022-09-30T13:45:30.699Z,50.1
2022-09-30T13:50:53.796Z,45.8
2022-09-30T13:55:59.908Z,42.9
2022-09-30T14:01:38.241Z,40.8
2022-09-30T14:07:16.090Z,39.3
2022-09-30T14:12:59.858Z,38.1
2022-09-30T14:18:39.941Z,37.1
2022-09-30T14:24:17.562Z,36.2
2022-09-30T14:29:59.651Z,35.4
2022-09-30T14:42:46.719Z,34.1
2022-09-30T14:48:30.905Z,33.6
2022-09-30T14:54:14.498Z,33.1
2022-09-30T14:59:52.545Z,32.7
2022-09-30T15:05:34.528Z,32.3
2022-09-30T15:11:11.340Z,31.9
2022-09-30T15:16:50.058Z,31.7
2022-09-30T15:22:27.423Z,31.4
2022-09-30T15:28:05.654Z,31.1
2022-09-30T15:33:43.731Z,30.9
2022-09-30T15:39:26.128Z,30.8
2022-09-30T15:45:08.687Z,30.6
2022-09-30T15:50:47.516Z,30.4
2022-09-30T15:56:29.845Z,30.3
2022-09-30T16:02:07.992Z,30.2
2022-09-30T16:07:46.105Z,30.1
2022-09-30T16:13:26.236Z,30
2022-09-30T16:19:07.988Z,29.9
2022-09-30T16:24:45.099Z,29.8
2022-09-30T16:30:24.958Z,29.8
2022-09-30T16:36:02.564Z,29.8
2022-09-30T16:41:40.410Z,29.7
2022-09-30T16:47:23.579Z,29.7
2022-09-30T16:52:49.629Z,29.6
2022-09-30T16:58:27.846Z,29.6
2022-09-30T17:03:49.891Z,29.6
2022-09-30T17:09:27.743Z,29.6
2022-09-30T17:15:05.316Z,29.6
2022-09-30T17:20:27.332Z,29.6
2022-09-30T17:25:49.729Z,29.5
2022-09-30T17:31:50.155Z,29.5
2022-09-30T17:37:27.423Z,29.5
2022-09-30T17:42:53.558Z,29.4
2022-09-30T17:48:18.337Z,29.4
2022-09-30T17:53:55.666Z,29.4
2022-09-30T17:59:22.574Z,29.6
2022-09-30T18:05:02.154Z,29.8
2022-09-30T18:10:40.165Z,30
2022-09-30T18:16:18.755Z,30.1
2022-09-30T18:21:57.300Z,30.2
2022-09-30T18:27:23.041Z,30.2
2022-09-30T18:32:31.603Z,30.1
2022-09-30T18:38:09.557Z,30
2022-09-30T18:43:32.998Z,29.9
2022-09-30T18:48:55.826Z,29.8
2022-09-30T18:54:34.076Z,29.6
2022-09-30T19:00:13.377Z,29.6
2022-09-30T19:05:53.109Z,29.5
2022-09-30T19:11:31.183Z,29.4
2022-09-30T19:17:11.796Z,29.3
2022-09-30T19:22:49.732Z,29.3
2022-09-30T19:28:27.196Z,29.2
2022-09-30T19:34:19.999Z,29.2
2022-09-30T19:41:44.770Z,29.1
2022-09-30T19:47:32.240Z,29.1
2022-09-30T19:53:42.378Z,29
2022-09-30T20:00:04.241Z,28.9
2022-09-30T20:05:29.114Z,28.9
2022-09-30T20:10:51.143Z,28.9
2022-09-30T20:16:35.414Z,28.9
2022-09-30T20:21:58.334Z,28.8
2022-09-30T20:27:35.520Z,28.8
2022-09-30T20:32:59.767Z,28.8
2022-09-30T20:38:38.622Z,28.8
2022-09-30T20:44:16.347Z,28.8
2022-09-30T20:49:57.089Z,28.7
2022-09-30T20:55:35.550Z,28.6
2022-09-30T21:01:37.887Z,28.6
2022-09-30T21:07:15.963Z,28.6
2022-09-30T21:12:39.258Z,28.1
2022-09-30T21:18:17.353Z,27.4
2022-09-30T21:23:54.632Z,26.9
2022-09-30T21:29:21.820Z,26.6
2022-09-30T21:34:45.001Z,26.3
2022-09-30T21:40:07.557Z,26.1
2022-09-30T21:45:46.114Z,25.9
2022-09-30T21:51:07.647Z,25.8
2022-09-30T21:56:49.413Z,25.7
2022-09-30T22:02:28.218Z,25.6
2022-09-30T22:07:49.904Z,25.5
2022-09-30T22:13:28.024Z,25.4
2022-09-30T22:19:06.220Z,25.3
2022-09-30T22:24:43.194Z,25.3
2022-09-30T22:30:20.806Z,25.1
2022-09-30T22:35:59.172Z,25.1
2022-09-30T22:41:23.828Z,25.1
2022-09-30T22:46:45.615Z,25
2022-09-30T22:52:23.532Z,24.9
2022-09-30T22:57:44.959Z,24.9
2022-09-30T23:03:05.988Z,24.9
2022-09-30T23:08:28.283Z,24.9
2022-09-30T23:14:05.613Z,24.8
2022-09-30T23:19:43.178Z,24.8
2022-09-30T23:25:20.542Z,24.8
2022-09-30T23:30:57.702Z,24.8
2022-09-30T23:36:19.917Z,24.8
2022-09-30T23:41:42.690Z,24.7
2022-09-30T23:47:20.205Z,24.7
2022-09-30T23:53:01.819Z,24.7
2022-09-30T23:58:38.525Z,24.7
